createdAt,value
2019-03-08T00:02:01.557Z,6.10
2019-03-08T00:04:29.933Z,6.10
2019-03-08T00:06:58.568Z,6.20
2019-03-08T00:09:26.947Z,6.20
2019-03-08T00:11:56.985Z,6.20
2019-03-08T00:14:27.700Z,6.20
2019-03-08T00:17:02.000Z,6.30
2019-03-08T00:19:30.520Z,6.20
2019-03-08T00:22:08.020Z,6.20
2019-03-08T00:24:40.320Z,6.20
2019-03-08T00:27:08.693Z,6.20
2019-03-08T00:29:37.075Z,6.20
2019-03-08T00:32:07.031Z,6.30
2019-03-08T00:34:35.433Z,6.30
2019-03-08T00:37:05.477Z,6.30
2019-03-08T00:39:37.273Z,6.40
2019-03-08T00:42:05.900Z,6.40
2019-03-08T00:44:36.171Z,6.40
2019-03-08T00:47:06.753Z,6.40
2019-03-08T00:49:44.044Z,6.50
2019-03-08T00:52:13.001Z,6.50
2019-03-08T00:54:41.387Z,6.60
2019-03-08T00:57:10.094Z,6.50
2019-03-08T00:59:41.877Z,6.50
2019-03-08T01:02:15.714Z,6.50
2019-03-08T01:04:44.767Z,6.30
2019-03-08T01:07:20.993Z,6.20
2019-03-08T01:09:49.365Z,6.10
2019-03-08T01:12:17.775Z,6.10
2019-03-08T01:14:51.829Z,6.10
2019-03-08T01:17:23.781Z,6.00
2019-03-08T01:19:53.961Z,5.90
2019-03-08T01:22:22.347Z,5.90
2019-03-08T01:24:50.769Z,5.80
2019-03-08T01:27:19.144Z,5.90
2019-03-08T01:29:47.537Z,6.10
2019-03-08T01:32:18.450Z,6.20
2019-03-08T01:34:46.841Z,6.30
2019-03-08T01:37:23.918Z,6.40
2019-03-08T01:39:55.424Z,6.40
2019-03-08T01:42:30.461Z,6.50
2019-03-08T01:45:00.517Z,6.50
2019-03-08T01:47:28.904Z,6.50
2019-03-08T01:49:59.190Z,6.60
2019-03-08T01:52:27.565Z,6.50
2019-03-08T01:54:55.986Z,6.50
2019-03-08T01:57:26.781Z,6.60
2019-03-08T01:59:57.910Z,6.70
2019-03-08T02:02:32.284Z,6.70
2019-03-08T02:05:01.537Z,6.80
2019-03-08T02:07:33.279Z,6.80
2019-03-08T02:10:04.045Z,6.80
2019-03-08T02:12:32.593Z,6.80
2019-03-08T02:15:00.984Z,6.70
2019-03-08T02:17:29.376Z,6.70
2019-03-08T02:20:01.779Z,6.70
2019-03-08T02:22:31.789Z,6.70
2019-03-08T02:25:06.158Z,6.70
2019-03-08T02:27:40.208Z,6.60
2019-03-08T02:30:11.681Z,6.60
2019-03-08T02:32:47.027Z,6.50
2019-03-08T02:35:19.423Z,6.50
2019-03-08T02:37:48.897Z,6.40
2019-03-08T02:40:30.731Z,6.40
2019-03-08T02:43:00.897Z,6.40
2019-03-08T02:45:32.250Z,6.30
2019-03-08T02:48:00.872Z,6.20
2019-03-08T02:50:34.515Z,6.20
2019-03-08T02:53:02.892Z,6.20
2019-03-08T02:55:38.033Z,6.10
2019-03-08T02:58:06.409Z,6.10
2019-03-08T03:00:38.009Z,6.10
2019-03-08T03:03:09.095Z,6.20
2019-03-08T03:05:40.140Z,6.20
2019-03-08T03:08:11.400Z,6.20
2019-03-08T03:10:42.429Z,6.20
2019-03-08T03:13:13.812Z,6.10
2019-03-08T03:15:42.197Z,6.10
2019-03-08T03:18:12.547Z,6.00
2019-03-08T03:20:46.617Z,5.80
2019-03-08T03:23:19.409Z,5.70
2019-03-08T03:25:50.554Z,5.60
2019-03-08T03:28:18.929Z,5.60
2019-03-08T03:30:47.390Z,5.60
2019-03-08T03:33:25.526Z,5.50
2019-03-08T03:35:58.203Z,5.50
2019-03-08T03:38:24.021Z,5.50
2019-03-08T03:40:54.057Z,5.40
2019-03-08T03:43:22.437Z,5.30
2019-03-08T03:45:52.373Z,5.20
2019-03-08T03:48:22.398Z,5.20
2019-03-08T03:50:58.653Z,5.10
2019-03-08T03:53:29.749Z,5.10
2019-03-08T03:56:01.065Z,5.00
2019-03-08T03:58:32.981Z,5.00
2019-03-08T04:01:20.953Z,4.90
2019-03-08T04:03:52.089Z,4.90
2019-03-08T04:06:21.496Z,4.90
2019-03-08T04:08:50.138Z,4.90
2019-03-08T04:11:21.673Z,4.90
2019-03-08T04:13:54.464Z,5.00
2019-03-08T04:16:28.602Z,4.90
2019-03-08T04:19:00.822Z,4.90
2019-03-08T04:21:30.949Z,5.00
2019-03-08T04:24:01.866Z,5.00
2019-03-08T04:26:30.238Z,5.00
2019-03-08T04:29:03.201Z,5.00
2019-03-08T04:31:32.278Z,5.00
2019-03-08T04:34:06.423Z,5.10
2019-03-08T04:36:36.451Z,5.10
2019-03-08T04:39:09.330Z,5.10
2019-03-08T04:41:38.011Z,5.20
2019-03-08T04:44:08.333Z,5.30
2019-03-08T04:46:36.749Z,5.40
2019-03-08T04:49:14.008Z,5.50
2019-03-08T04:51:42.398Z,5.60
2019-03-08T04:54:13.533Z,5.60
2019-03-08T04:56:45.317Z,5.70
2019-03-08T04:59:15.349Z,5.70
2019-03-08T05:01:45.385Z,5.70
2019-03-08T05:04:16.710Z,5.80
2019-03-08T05:06:46.979Z,5.80
2019-03-08T05:09:16.041Z,5.70
2019-03-08T05:11:47.225Z,5.60
2019-03-08T05:14:15.800Z,5.50
2019-03-08T05:16:47.112Z,5.50
2019-03-08T05:19:16.925Z,5.50
2019-03-08T05:21:49.737Z,5.50
2019-03-08T05:24:21.625Z,5.60
2019-03-08T05:26:54.328Z,5.60
2019-03-08T05:29:24.289Z,5.70
2019-03-08T05:31:56.840Z,5.70
2019-03-08T05:34:25.894Z,5.70
2019-03-08T05:36:54.274Z,5.70
2019-03-08T05:39:25.629Z,5.70
2019-03-08T05:41:54.714Z,5.80
2019-03-08T05:44:27.901Z,5.80
2019-03-08T05:46:57.329Z,5.80
2019-03-08T05:49:34.843Z,5.80
2019-03-08T05:52:05.693Z,5.80
2019-03-08T05:54:34.078Z,5.80
2019-03-08T05:57:05.369Z,5.80
2019-03-08T05:59:37.030Z,5.80
2019-03-08T06:02:06.897Z,5.80
2019-03-08T06:04:36.286Z,5.90
2019-03-08T06:07:07.493Z,5.90
2019-03-08T06:09:38.397Z,5.90
2019-03-08T06:12:08.428Z,5.90
2019-03-08T06:14:42.736Z,5.80
2019-03-08T06:17:12.243Z,5.80
2019-03-08T06:19:40.619Z,5.70
2019-03-08T06:22:08.998Z,5.70
2019-03-08T06:24:40.336Z,5.70
2019-03-08T06:27:09.489Z,5.80
2019-03-08T06:29:37.885Z,5.90
2019-03-08T06:32:09.341Z,6.00
2019-03-08T06:34:37.729Z,6.10
2019-03-08T06:37:10.717Z,6.20
2019-03-08T06:39:39.109Z,6.30
2019-03-08T06:42:07.505Z,6.40
2019-03-08T06:44:35.894Z,6.50
2019-03-08T06:47:04.273Z,6.50
2019-03-08T06:49:32.733Z,6.60
2019-03-08T06:52:01.193Z,6.60
2019-03-08T06:54:29.582Z,6.70
2019-03-08T06:57:00.393Z,6.70
2019-03-08T06:59:30.449Z,6.80
2019-03-08T07:02:03.522Z,6.80
2019-03-08T07:04:40.569Z,6.90
2019-03-08T07:07:16.678Z,6.90
2019-03-08T07:09:45.056Z,7.00
2019-03-08T07:12:13.457Z,7.10
2019-03-08T07:14:41.834Z,7.20
2019-03-08T07:17:10.464Z,7.20
2019-03-08T07:19:41.023Z,7.30
2019-03-08T07:22:14.933Z,7.30
2019-03-08T07:24:45.254Z,7.40
2019-03-08T07:27:18.090Z,7.40
2019-03-08T07:29:57.061Z,7.50
2019-03-08T07:32:30.681Z,7.60
2019-03-08T07:35:03.425Z,7.60
2019-03-08T07:37:36.332Z,7.60
2019-03-08T07:40:25.938Z,7.50
2019-03-08T07:42:58.826Z,7.60
2019-03-08T07:45:29.105Z,7.70
2019-03-08T07:47:59.116Z,7.80
2019-03-08T07:50:32.220Z,8.00
2019-03-08T07:53:02.917Z,8.10
2019-03-08T07:55:46.493Z,8.30
2019-03-08T07:58:22.453Z,8.40
2019-03-08T08:01:04.375Z,8.50
2019-03-08T08:03:43.384Z,8.50
2019-03-08T08:06:21.878Z,8.50
2019-03-08T08:08:57.969Z,8.60
2019-03-08T08:11:33.910Z,8.60
2019-03-08T08:14:24.181Z,8.60
2019-03-08T08:16:57.516Z,8.70
2019-03-08T08:19:36.341Z,8.80
2019-03-08T08:22:18.658Z,8.70
2019-03-08T08:24:57.741Z,8.70
2019-03-08T08:27:33.493Z,8.70
2019-03-08T08:30:25.966Z,8.60
2019-03-08T08:32:56.685Z,8.60
2019-03-08T08:35:29.696Z,8.40
2019-03-08T08:38:03.841Z,8.30
2019-03-08T08:40:39.869Z,8.20
2019-03-08T08:43:26.734Z,8.20
2019-03-08T08:46:05.663Z,8.10
2019-03-08T08:48:51.889Z,8.10
2019-03-08T08:51:21.920Z,8.10
2019-03-08T08:53:51.945Z,8.00
2019-03-08T08:56:38.507Z,8.00
2019-03-08T08:59:18.918Z,8.00
2019-03-08T09:01:56.637Z,7.90
2019-03-08T09:04:38.884Z,7.90
2019-03-08T09:07:21.720Z,7.80
2019-03-08T09:09:57.656Z,7.80
2019-03-08T09:12:30.886Z,7.70
2019-03-08T09:15:12.690Z,7.60
2019-03-08T09:17:58.891Z,7.50
2019-03-08T09:20:38.593Z,7.40
2019-03-08T09:23:17.937Z,7.30
2019-03-08T09:25:47.953Z,7.10
2019-03-08T09:28:36.027Z,7.00
2019-03-08T09:31:06.058Z,7.00
2019-03-08T09:33:53.183Z,7.00
2019-03-08T09:36:32.469Z,7.00
2019-03-08T09:39:18.092Z,6.90
2019-03-08T09:41:53.582Z,7.00
2019-03-08T09:44:23.845Z,7.00
2019-03-08T09:46:53.857Z,7.00
2019-03-08T09:49:40.090Z,7.00
2019-03-08T09:52:13.040Z,7.10
2019-03-08T09:54:43.065Z,7.20
2019-03-08T09:57:31.337Z,7.20
2019-03-08T10:00:18.009Z,7.30
2019-03-08T10:02:48.289Z,7.40
2019-03-08T10:05:29.729Z,7.50
2019-03-08T10:08:11.570Z,7.60
2019-03-08T10:10:56.700Z,7.70
2019-03-08T10:13:26.731Z,7.90
2019-03-08T10:16:02.957Z,8.00
2019-03-08T10:18:40.203Z,8.00
2019-03-08T10:21:10.892Z,8.10
2019-03-08T10:23:53.052Z,8.10
2019-03-08T10:26:38.097Z,7.90
2019-03-08T10:29:24.625Z,7.80
2019-03-08T10:31:54.677Z,7.70
2019-03-08T10:34:42.774Z,7.70
2019-03-08T10:37:12.826Z,7.50
2019-03-08T10:39:42.898Z,7.20
2019-03-08T10:42:15.625Z,7.00
2019-03-08T10:45:03.405Z,6.80
2019-03-08T10:47:33.602Z,6.70
2019-03-08T10:50:19.735Z,6.70
2019-03-08T10:52:50.051Z,6.70
2019-03-08T10:55:26.193Z,6.80
2019-03-08T10:58:02.121Z,7.30
2019-03-08T11:00:35.055Z,7.90
2019-03-08T11:03:14.092Z,8.30
2019-03-08T11:05:59.274Z,8.80
2019-03-08T11:08:47.213Z,9.00
2019-03-08T11:11:19.974Z,9.50
2019-03-08T11:13:52.909Z,9.60
2019-03-08T11:16:38.919Z,9.60
2019-03-08T11:19:14.740Z,9.60
2019-03-08T11:22:02.041Z,9.70
2019-03-08T11:24:48.609Z,9.70
2019-03-08T11:27:24.630Z,10.10
2019-03-08T11:29:57.455Z,10.50
2019-03-08T11:32:46.362Z,10.70
2019-03-08T11:35:25.849Z,10.50
2019-03-08T11:38:12.396Z,10.50
2019-03-08T11:40:42.431Z,10.40
2019-03-08T11:43:24.864Z,10.60
2019-03-08T11:46:03.693Z,10.70
2019-03-08T11:48:33.897Z,10.40
2019-03-08T11:51:19.194Z,10.40
2019-03-08T11:54:08.272Z,10.30
2019-03-08T11:56:41.320Z,10.30
2019-03-08T11:59:27.757Z,10.10
2019-03-08T12:02:15.846Z,10.20
2019-03-08T12:04:53.276Z,10.40
2019-03-08T12:07:23.358Z,10.80
2019-03-08T12:10:08.491Z,11.20
2019-03-08T12:12:41.650Z,11.40
2019-03-08T12:15:32.770Z,11.40
2019-03-08T12:18:17.329Z,11.30
2019-03-08T12:20:47.325Z,11.50
2019-03-08T12:23:17.345Z,12.30
2019-03-08T12:25:47.508Z,12.30
2019-03-08T12:28:32.624Z,12.10
2019-03-08T12:31:05.578Z,11.50
2019-03-08T12:33:38.332Z,10.90
2019-03-08T12:36:14.165Z,10.90
2019-03-08T12:38:50.305Z,10.70
2019-03-08T12:41:23.070Z,10.50
2019-03-08T12:43:59.001Z,10.50
2019-03-08T12:46:32.335Z,10.60
2019-03-08T12:49:11.371Z,11.20
2019-03-08T12:51:44.127Z,11.30
2019-03-08T12:54:20.161Z,11.30
2019-03-08T12:57:02.813Z,11.00
2019-03-08T12:59:35.673Z,10.90
2019-03-08T13:02:22.425Z,10.70
2019-03-08T13:05:01.568Z,10.70
2019-03-08T13:07:37.609Z,10.90
2019-03-08T13:10:10.962Z,10.80
2019-03-08T13:12:39.359Z,10.80
2019-03-08T13:15:10.549Z,10.80
2019-03-08T13:17:38.942Z,10.70
2019-03-08T13:20:18.074Z,10.40
2019-03-08T13:22:46.706Z,10.60
2019-03-08T13:25:15.160Z,11.60
2019-03-08T13:27:43.561Z,12.40
2019-03-08T13:30:16.432Z,12.10
2019-03-08T13:32:45.461Z,11.80
2019-03-08T13:35:15.011Z,11.80
2019-03-08T13:37:44.461Z,11.90
2019-03-08T13:40:16.318Z,11.90
2019-03-08T13:42:45.018Z,12.70
2019-03-08T13:45:22.876Z,13.30
2019-03-08T13:47:54.402Z,12.80
2019-03-08T13:50:23.107Z,12.00
2019-03-08T13:52:52.144Z,11.50
2019-03-08T13:55:22.985Z,11.50
2019-03-08T13:57:54.569Z,12.30
2019-03-08T14:00:22.989Z,12.20
2019-03-08T14:02:51.370Z,12.30
2019-03-08T14:05:19.933Z,12.10
2019-03-08T14:07:48.329Z,12.80
2019-03-08T14:10:19.546Z,13.90
2019-03-08T14:12:49.594Z,14.40
2019-03-08T14:15:18.944Z,14.70
2019-03-08T14:17:50.115Z,14.40
2019-03-08T14:20:26.376Z,13.80
2019-03-08T14:22:55.240Z,13.30
2019-03-08T14:25:26.721Z,12.90
2019-03-08T14:27:57.513Z,12.70
2019-03-08T14:30:40.168Z,13.30
2019-03-08T14:33:08.565Z,13.90
2019-03-08T14:35:39.778Z,13.60
2019-03-08T14:38:08.162Z,12.90
2019-03-08T14:40:43.637Z,12.30
2019-03-08T14:43:22.481Z,11.80
2019-03-08T14:45:57.858Z,11.60
2019-03-08T14:48:26.249Z,11.50
2019-03-08T14:50:54.876Z,11.50
2019-03-08T14:53:28.315Z,11.50
2019-03-08T14:55:59.187Z,11.50
2019-03-08T14:58:32.446Z,11.40
2019-03-08T15:01:07.403Z,11.40
2019-03-08T15:03:43.175Z,11.40
2019-03-08T15:06:06.893Z,11.30
2019-03-08T15:08:37.992Z,11.10
2019-03-08T15:11:13.693Z,10.80
2019-03-08T15:13:42.929Z,10.50
2019-03-08T15:16:14.152Z,10.30
2019-03-08T15:18:46.015Z,10.30
2019-03-08T15:21:14.397Z,10.20
2019-03-08T15:23:46.102Z,10.90
2019-03-08T15:26:15.431Z,11.60
2019-03-08T15:28:43.814Z,11.30
2019-03-08T15:31:17.731Z,10.90
2019-03-08T15:33:47.104Z,10.70
2019-03-08T15:36:17.385Z,10.30
2019-03-08T15:38:47.021Z,10.10
2019-03-08T15:41:15.621Z,10.10
2019-03-08T15:43:47.034Z,10.50
2019-03-08T15:46:18.679Z,10.70
2019-03-08T15:48:49.262Z,10.90
2019-03-08T15:51:20.903Z,10.90
2019-03-08T15:53:49.349Z,10.60
2019-03-08T15:56:17.729Z,10.20
2019-03-08T15:58:49.401Z,10.00
2019-03-08T16:01:20.930Z,10.00
2019-03-08T16:03:50.965Z,9.90
2019-03-08T16:06:23.419Z,9.70
2019-03-08T16:08:55.393Z,9.60
2019-03-08T16:11:32.718Z,9.70
2019-03-08T16:14:08.383Z,9.70
2019-03-08T16:16:35.295Z,9.60
2019-03-08T16:19:03.118Z,9.50
2019-03-08T16:21:31.754Z,9.50
2019-03-08T16:24:01.770Z,9.40
2019-03-08T16:26:30.158Z,9.20
2019-03-08T16:28:58.448Z,8.90
2019-03-08T16:31:34.638Z,8.70
2019-03-08T16:34:05.226Z,8.40
2019-03-08T16:36:35.211Z,8.20
2019-03-08T16:39:08.550Z,7.90
2019-03-08T16:41:54.805Z,7.80
2019-03-08T16:44:36.830Z,7.70
2019-03-08T16:47:12.361Z,7.50
2019-03-08T16:49:58.593Z,7.40
2019-03-08T16:52:28.657Z,7.40
2019-03-08T16:55:07.029Z,7.30
2019-03-08T16:57:49.061Z,7.30
2019-03-08T17:00:19.890Z,7.30
2019-03-08T17:03:01.845Z,7.20
2019-03-08T17:05:49.637Z,7.30
2019-03-08T17:08:25.454Z,7.50
2019-03-08T17:10:55.473Z,7.20
2019-03-08T17:13:40.888Z,6.90
2019-03-08T17:16:17.393Z,6.70
2019-03-08T17:18:50.119Z,6.50
2019-03-08T17:21:37.572Z,6.50
2019-03-08T17:24:07.605Z,6.40
2019-03-08T17:26:37.642Z,6.20
2019-03-08T17:29:16.461Z,6.00
2019-03-08T17:32:04.912Z,6.00
2019-03-08T17:34:49.953Z,6.00
2019-03-08T17:37:32.210Z,6.00
2019-03-08T17:40:02.253Z,6.10
2019-03-08T17:42:34.981Z,6.10
2019-03-08T17:45:21.725Z,6.10
2019-03-08T17:47:58.334Z,6.10
2019-03-08T17:50:37.586Z,6.10
2019-03-08T17:53:13.190Z,6.10
2019-03-08T17:55:52.187Z,6.20
2019-03-08T17:58:22.461Z,6.30
2019-03-08T18:01:00.589Z,6.30
2019-03-08T18:03:57.378Z,6.30
2019-03-08T18:06:37.392Z,6.30
2019-03-08T18:09:08.418Z,6.40
2019-03-08T18:11:41.674Z,6.30
2019-03-08T18:14:14.649Z,6.30
2019-03-08T18:16:47.444Z,6.30
2019-03-08T18:19:23.425Z,6.30
2019-03-08T18:22:01.997Z,6.30
2019-03-08T18:24:37.593Z,6.20
2019-03-08T18:27:13.811Z,6.20
2019-03-08T18:29:49.974Z,6.10
2019-03-08T18:32:28.944Z,6.10
2019-03-08T18:35:01.933Z,6.00
2019-03-08T18:37:44.534Z,6.00
2019-03-08T18:40:22.692Z,6.00
2019-03-08T18:42:59.209Z,6.00
2019-03-08T18:45:45.581Z,6.00
2019-03-08T18:48:33.312Z,6.00
2019-03-08T18:51:22.405Z,6.10
2019-03-08T18:53:52.432Z,6.10
2019-03-08T18:56:22.452Z,6.20
2019-03-08T18:58:52.721Z,6.20
2019-03-08T19:01:28.717Z,6.20
2019-03-08T19:04:20.560Z,6.10
2019-03-08T19:07:09.835Z,6.10
2019-03-08T19:09:39.820Z,6.10
2019-03-08T19:12:15.785Z,6.00
2019-03-08T19:14:48.708Z,5.90
2019-03-08T19:17:25.618Z,5.90
2019-03-08T19:20:10.514Z,5.80
2019-03-08T19:22:43.295Z,5.80
2019-03-08T19:25:31.113Z,5.70
2019-03-08T19:28:07.121Z,5.70
2019-03-08T19:30:53.653Z,5.70
2019-03-08T19:33:29.431Z,5.60
2019-03-08T19:36:02.172Z,5.50
2019-03-08T19:38:38.199Z,5.50
2019-03-08T19:41:23.410Z,5.50
2019-03-08T19:43:59.573Z,5.50
2019-03-08T19:46:29.610Z,5.50
2019-03-08T19:49:18.164Z,5.50
2019-03-08T19:52:03.262Z,5.60
2019-03-08T19:54:51.293Z,5.60
2019-03-08T19:57:39.861Z,5.60
2019-03-08T20:00:30.753Z,5.70
2019-03-08T20:03:17.658Z,5.70
2019-03-08T20:05:50.490Z,5.70
2019-03-08T20:08:38.614Z,5.70
2019-03-08T20:11:28.480Z,5.70
2019-03-08T20:14:01.167Z,5.70
2019-03-08T20:16:48.706Z,5.60
2019-03-08T20:19:24.498Z,5.60
2019-03-08T20:22:02.242Z,5.60
2019-03-08T20:24:33.768Z,5.60
2019-03-08T20:27:04.013Z,5.60
2019-03-08T20:29:45.545Z,5.60
2019-03-08T20:32:21.581Z,5.60
2019-03-08T20:34:51.645Z,5.50
2019-03-08T20:37:27.409Z,5.50
2019-03-08T20:40:25.929Z,5.50
2019-03-08T20:42:58.874Z,5.50
2019-03-08T20:49:08.481Z,5.50
2019-03-08T20:51:37.105Z,5.50
2019-03-08T20:54:05.497Z,5.40
2019-03-08T20:56:35.421Z,5.40
2019-03-08T20:59:04.062Z,5.40
2019-03-08T21:01:32.446Z,5.40
2019-03-08T21:04:00.843Z,5.40
2019-03-08T21:06:29.214Z,5.40
2019-03-08T21:08:57.613Z,5.40
2019-03-08T21:11:25.993Z,5.40
2019-03-08T21:13:55.153Z,5.40
2019-03-08T21:16:23.545Z,5.40
2019-03-08T21:18:52.192Z,5.40
2019-03-08T21:21:20.563Z,5.40
2019-03-08T21:23:48.941Z,5.40
2019-03-08T21:26:17.338Z,5.40
2019-03-08T21:28:45.715Z,5.40
2019-03-08T21:31:14.135Z,5.30
2019-03-08T21:33:42.749Z,5.30
2019-03-08T21:36:13.159Z,5.30
2019-03-08T21:38:41.525Z,5.30
2019-03-08T21:41:10.585Z,5.30
2019-03-08T21:43:39.234Z,5.30
2019-03-08T21:46:07.632Z,5.30
2019-03-08T21:48:36.014Z,5.30
2019-03-08T21:51:04.631Z,5.30
2019-03-08T21:53:33.021Z,5.40
2019-03-08T21:56:02.328Z,5.40
2019-03-08T21:58:30.877Z,5.60
2019-03-08T22:00:59.498Z,5.80
2019-03-08T22:03:28.141Z,6.00
2019-03-08T22:05:56.599Z,6.20
2019-03-08T22:08:30.335Z,6.30
2019-03-08T22:11:06.477Z,6.30
2019-03-08T22:13:39.482Z,6.30
2019-03-08T22:16:09.397Z,6.40
2019-03-08T22:18:40.544Z,6.40
2019-03-08T22:21:15.157Z,6.40
2019-03-08T22:23:45.180Z,6.40
2019-03-08T22:26:17.896Z,6.40
2019-03-08T22:28:48.593Z,6.40
2019-03-08T22:31:16.988Z,6.40
2019-03-08T22:33:46.314Z,6.40
2019-03-08T22:36:20.779Z,6.50
2019-03-08T22:38:49.225Z,6.50
2019-03-08T22:41:19.222Z,6.60
2019-03-08T22:43:55.381Z,6.50
2019-03-08T22:46:24.014Z,6.50
2019-03-08T22:48:52.398Z,6.40
2019-03-08T22:51:23.606Z,6.40
2019-03-08T22:53:53.632Z,6.30
2019-03-08T22:56:22.018Z,6.40
2019-03-08T22:58:50.634Z,6.40
2019-03-08T23:01:44.694Z,6.40
2019-03-08T23:04:22.889Z,6.40
2019-03-08T23:06:52.946Z,6.40
2019-03-08T23:09:22.973Z,6.50
2019-03-08T23:11:52.158Z,6.50
2019-03-08T23:14:23.503Z,6.50
2019-03-08T23:16:54.563Z,6.60
2019-03-08T23:19:26.497Z,6.70
2019-03-08T23:21:57.918Z,6.70
2019-03-08T23:24:27.948Z,6.70
2019-03-08T23:27:06.358Z,6.70
2019-03-08T23:29:45.413Z,6.80
2019-03-08T23:32:19.154Z,6.80
2019-03-08T23:34:50.506Z,6.80
2019-03-08T23:37:18.909Z,6.80
2019-03-08T23:39:50.194Z,6.80
2019-03-08T23:42:18.569Z,6.90
2019-03-08T23:44:47.140Z,6.90
2019-03-08T23:47:15.636Z,6.90
2019-03-08T23:49:44.025Z,6.90
2019-03-08T23:52:18.010Z,6.90
2019-03-08T23:54:48.040Z,6.90
2019-03-08T23:57:20.112Z,6.90
2019-03-08T23:59:49.785Z,7.00
